Nasco Pearl — VRHS2 — position and weather

sailwx.info

Track history (hours):
 
Tides and Currents Weather Stations Pressure Air Temp Water Temp Dewpoint Dewpoint Depression Visibility Wind Speed Wind Dir Waves Ship Positions

Nasco Pearl

Last reported at 2017-Mar-21 22:32 UTC. Time now 2017-Mar-26 20:52 UTC.
Position N 31°02' E 122°15'.

Length 189 m; draft 6.8 m.

Type: Cargo ship. MMSI: 477982400.

Date/timePositionNaut miles runAvg speedWind from/ knotsBaromVisibWave heightAir tempDewpointWater temp
2017-Mar-21 22:32N 31°02' E 122°15'9 9.3
2017-Mar-21 21:33N 31°04' E 122°05'1111.3
2017-Mar-21 20:33N 31°09' E 121°53'1212.3
2017-Mar-21 19:33N 31°18' E 121°43'1010.5
2017-Mar-21 18:33N 31°24' E 121°33'10 9.5
2017-Mar-21 17:33N 31°30' E 121°25'1312.9
2017-Mar-21 16:34N 31°39' E 121°14'1413.8
2017-Mar-21 15:31N 31°47' E 120°60'2510.5
2017-Mar-21 13:10N 32°00' E 120°35'1212.4
2017-Mar-21 12:13N 31°59' E 120°22'  
2017-Mar-19 04:30N 32°01' E 120°25'36 7.3
2017-Mar-18 23:32N 31°46' E 121°04'8 7.9
2017-Mar-18 22:33N 31°41' E 121°11'4 3.7
2017-Mar-18 21:28N 31°39' E 121°15'0 0.0
2017-Mar-18 20:31N 31°39' E 121°15'0 0.0
2017-Mar-18 19:28N 31°39' E 121°15'0 0.0
2017-Mar-18 18:31N 31°39' E 121°15'0 0.2
2017-Mar-18 17:28N 31°39' E 121°15'0 0.0
2017-Mar-18 16:31N 31°39' E 121°15'0 0.0
2017-Mar-18 15:31N 31°39' E 121°15'0 0.0
2017-Mar-18 14:34N 31°39' E 121°15'0 0.0
2017-Mar-18 13:28N 31°39' E 121°15'0 0.0
2017-Mar-18 12:28N 31°39' E 121°15'0 0.0
2017-Mar-18 11:31N 31°39' E 121°15'3 2.7
2017-Mar-18 10:33N 31°37' E 121°17'1010.4
2017-Mar-18 09:33N 31°30' E 121°26'10 9.0
2017-Mar-18 08:24N 31°23' E 121°35'911.0
2017-Mar-18 07:33N 31°19' E 121°45'1110.9
2017-Mar-18 06:33N 31°15' E 121°57'1111.4
2017-Mar-18 05:33N 31°11' E 122°10'1312.7
2017-Mar-18 04:33N 31°06' E 122°23'25 2.0
2017-Mar-17 16:11N 31°07' E 122°52'1112.6
2017-Mar-17 15:20N 30°59' E 123°01'  
Track history (hours):
 
Tides and Currents Weather Stations Pressure Air Temp Water Temp Dewpoint Dewpoint Depression Visibility Wind Speed Wind Dir Waves Ship Positions

Nasco Pearl

Last reported at 2017-Mar-21 22:32 UTC. Time now 2017-Mar-26 20:52 UTC.
Position N 31°02' E 122°15'.

Length 189 m; draft 6.8 m.

Type: Cargo ship. MMSI: 477982400.

Date/timePositionNaut miles runAvg speedWind from/ knotsBaromVisibWave heightAir tempDewpointWater temp
2017-Mar-21 22:32N 31°02' E 122°15'9 9.3
2017-Mar-21 21:33N 31°04' E 122°05'1111.3
2017-Mar-21 20:33N 31°09' E 121°53'1212.3
2017-Mar-21 19:33N 31°18' E 121°43'1010.5
2017-Mar-21 18:33N 31°24' E 121°33'10 9.5
2017-Mar-21 17:33N 31°30' E 121°25'1312.9
2017-Mar-21 16:34N 31°39' E 121°14'1413.8
2017-Mar-21 15:31N 31°47' E 120°60'2510.5
2017-Mar-21 13:10N 32°00' E 120°35'1212.4
2017-Mar-21 12:13N 31°59' E 120°22'  
2017-Mar-19 04:30N 32°01' E 120°25'36 7.3
2017-Mar-18 23:32N 31°46' E 121°04'8 7.9
2017-Mar-18 22:33N 31°41' E 121°11'4 3.7
2017-Mar-18 21:28N 31°39' E 121°15'0 0.0
2017-Mar-18 20:31N 31°39' E 121°15'0 0.0
2017-Mar-18 19:28N 31°39' E 121°15'0 0.0
2017-Mar-18 18:31N 31°39' E 121°15'0 0.2
2017-Mar-18 17:28N 31°39' E 121°15'0 0.0
2017-Mar-18 16:31N 31°39' E 121°15'0 0.0
2017-Mar-18 15:31N 31°39' E 121°15'0 0.0
2017-Mar-18 14:34N 31°39' E 121°15'0 0.0
2017-Mar-18 13:28N 31°39' E 121°15'0 0.0
2017-Mar-18 12:28N 31°39' E 121°15'0 0.0
2017-Mar-18 11:31N 31°39' E 121°15'3 2.7
2017-Mar-18 10:33N 31°37' E 121°17'1010.4
2017-Mar-18 09:33N 31°30' E 121°26'10 9.0
2017-Mar-18 08:24N 31°23' E 121°35'911.0
2017-Mar-18 07:33N 31°19' E 121°45'1110.9
2017-Mar-18 06:33N 31°15' E 121°57'1111.4
2017-Mar-18 05:33N 31°11' E 122°10'1312.7
2017-Mar-18 04:33N 31°06' E 122°23'25 2.0
2017-Mar-17 16:11N 31°07' E 122°52'1112.6
2017-Mar-17 15:20N 30°59' E 123°01'  

Dump ship's entire track history